sensor_id;sensor_type;location;lat;lon;timestamp;P1;durP1;ratioP1;P2;durP2;ratioP2
5297;SDS011;14738;42.668;23.250;2022-12-18T00:01:31;6.00;;;5.50;;
5297;SDS011;14738;42.668;23.250;2022-12-18T00:03:58;5.93;;;5.43;;
5297;SDS011;14738;42.668;23.250;2022-12-18T00:06:27;6.37;;;5.87;;
5297;SDS011;14738;42.668;23.250;2022-12-18T00:08:55;6.47;;;5.97;;
5297;SDS011;14738;42.668;23.250;2022-12-18T00:11:23;6.40;;;5.87;;
5297;SDS011;14738;42.668;23.250;2022-12-18T00:13:50;7.10;;;6.50;;
5297;SDS011;14738;42.668;23.250;2022-12-18T00:16:17;7.63;;;7.00;;
5297;SDS011;14738;42.668;23.250;2022-12-18T00:18:45;7.50;;;6.80;;
5297;SDS011;14738;42.668;23.250;2022-12-18T00:21:13;7.50;;;6.80;;
5297;SDS011;14738;42.668;23.250;2022-12-18T00:23:40;7.87;;;7.10;;
5297;SDS011;14738;42.668;23.250;2022-12-18T00:26:49;6.93;;;6.27;;
5297;SDS011;14738;42.668;23.250;2022-12-18T00:29:01;6.53;;;5.93;;
5297;SDS011;14738;42.668;23.250;2022-12-18T00:31:38;7.93;;;7.23;;
5297;SDS011;14738;42.668;23.250;2022-12-18T00:34:04;6.93;;;6.33;;
5297;SDS011;14738;42.668;23.250;2022-12-18T00:36:32;7.47;;;6.87;;
5297;SDS011;14738;42.668;23.250;2022-12-18T00:38:59;6.67;;;6.10;;
5297;SDS011;14738;42.668;23.250;2022-12-18T00:41:27;7.37;;;6.87;;
5297;SDS011;14738;42.668;23.250;2022-12-18T00:44:13;9.33;;;7.13;;
5297;SDS011;14738;42.668;23.250;2022-12-18T00:46:40;7.40;;;6.80;;
5297;SDS011;14738;42.668;23.250;2022-12-18T00:49:06;7.53;;;6.43;;
5297;SDS011;14738;42.668;23.250;2022-12-18T00:51:32;7.10;;;6.50;;
5297;SDS011;14738;42.668;23.250;2022-12-18T00:53:57;7.97;;;7.17;;
5297;SDS011;14738;42.668;23.250;2022-12-18T00:56:23;7.10;;;6.50;;
5297;SDS011;14738;42.668;23.250;2022-12-18T00:58:49;7.57;;;6.67;;
5297;SDS011;14738;42.668;23.250;2022-12-18T01:01:15;6.80;;;6.30;;
5297;SDS011;14738;42.668;23.250;2022-12-18T01:03:41;7.10;;;6.40;;
5297;SDS011;14738;42.668;23.250;2022-12-18T01:06:07;7.43;;;6.70;;
5297;SDS011;14738;42.668;23.250;2022-12-18T01:08:34;7.70;;;7.00;;
5297;SDS011;14738;42.668;23.250;2022-12-18T01:10:59;7.77;;;7.07;;
5297;SDS011;14738;42.668;23.250;2022-12-18T01:13:25;6.77;;;6.17;;
5297;SDS011;14738;42.668;23.250;2022-12-18T01:15:51;7.77;;;7.07;;
5297;SDS011;14738;42.668;23.250;2022-12-18T01:18:17;9.43;;;7.30;;
5297;SDS011;14738;42.668;23.250;2022-12-18T01:20:42;8.90;;;8.10;;
5297;SDS011;14738;42.668;23.250;2022-12-18T01:23:08;7.83;;;7.13;;
5297;SDS011;14738;42.668;23.250;2022-12-18T01:25:35;7.70;;;7.00;;
5297;SDS011;14738;42.668;23.250;2022-12-18T01:28:01;8.30;;;7.43;;
5297;SDS011;14738;42.668;23.250;2022-12-18T01:30:27;7.50;;;6.90;;
5297;SDS011;14738;42.668;23.250;2022-12-18T01:32:52;9.60;;;8.70;;
5297;SDS011;14738;42.668;23.250;2022-12-18T01:35:18;8.60;;;7.77;;
5297;SDS011;14738;42.668;23.250;2022-12-18T01:37:44;9.43;;;8.53;;
5297;SDS011;14738;42.668;23.250;2022-12-18T01:40:09;8.93;;;8.00;;
5297;SDS011;14738;42.668;23.250;2022-12-18T01:42:35;9.30;;;8.40;;
5297;SDS011;14738;42.668;23.250;2022-12-18T01:45:02;9.97;;;8.93;;
5297;SDS011;14738;42.668;23.250;2022-12-18T01:47:35;9.70;;;8.70;;
5297;SDS011;14738;42.668;23.250;2022-12-18T01:52:49;9.53;;;8.53;;
5297;SDS011;14738;42.668;23.250;2022-12-18T01:55:18;10.33;;;9.13;;
5297;SDS011;14738;42.668;23.250;2022-12-18T01:57:45;9.83;;;8.83;;
5297;SDS011;14738;42.668;23.250;2022-12-18T02:00:13;9.57;;;8.57;;
5297;SDS011;14738;42.668;23.250;2022-12-18T02:02:41;11.10;;;9.63;;
5297;SDS011;14738;42.668;23.250;2022-12-18T02:05:08;10.30;;;9.30;;
5297;SDS011;14738;42.668;23.250;2022-12-18T02:07:52;9.97;;;8.97;;
5297;SDS011;14738;42.668;23.250;2022-12-18T02:13:24;9.40;;;8.50;;
5297;SDS011;14738;42.668;23.250;2022-12-18T02:19:03;9.70;;;8.70;;
5297;SDS011;14738;42.668;23.250;2022-12-18T02:26:49;11.60;;;9.10;;
5297;SDS011;14738;42.668;23.250;2022-12-18T02:29:22;9.50;;;8.60;;
5297;SDS011;14738;42.668;23.250;2022-12-18T02:32:01;12.03;;;10.80;;
5297;SDS011;14738;42.668;23.250;2022-12-18T02:34:31;9.07;;;8.17;;
5297;SDS011;14738;42.668;23.250;2022-12-18T02:37:02;8.27;;;7.57;;
5297;SDS011;14738;42.668;23.250;2022-12-18T02:39:30;8.37;;;7.47;;
5297;SDS011;14738;42.668;23.250;2022-12-18T02:41:58;6.93;;;6.33;;
5297;SDS011;14738;42.668;23.250;2022-12-18T02:44:27;8.53;;;7.73;;
5297;SDS011;14738;42.668;23.250;2022-12-18T02:46:53;7.80;;;7.13;;
5297;SDS011;14738;42.668;23.250;2022-12-18T02:49:22;7.80;;;7.10;;
5297;SDS011;14738;42.668;23.250;2022-12-18T02:57:02;8.47;;;7.73;;
5297;SDS011;14738;42.668;23.250;2022-12-18T03:02:57;10.20;;;9.13;;
5297;SDS011;14738;42.668;23.250;2022-12-18T03:05:31;8.27;;;7.57;;
5297;SDS011;14738;42.668;23.250;2022-12-18T03:08:12;7.17;;;6.53;;
5297;SDS011;14738;42.668;23.250;2022-12-18T03:10:44;8.40;;;7.63;;
5297;SDS011;14738;42.668;23.250;2022-12-18T03:13:23;6.90;;;6.23;;
5297;SDS011;14738;42.668;23.250;2022-12-18T03:15:58;6.63;;;6.07;;
5297;SDS011;14738;42.668;23.250;2022-12-18T03:21:06;8.10;;;7.33;;
5297;SDS011;14738;42.668;23.250;2022-12-18T03:23:40;7.33;;;6.73;;
5297;SDS011;14738;42.668;23.250;2022-12-18T03:26:09;7.40;;;6.70;;
5297;SDS011;14738;42.668;23.250;2022-12-18T03:28:42;7.93;;;7.13;;
5297;SDS011;14738;42.668;23.250;2022-12-18T03:31:12;6.90;;;6.30;;
5297;SDS011;14738;42.668;23.250;2022-12-18T03:36:09;7.90;;;7.10;;
5297;SDS011;14738;42.668;23.250;2022-12-18T03:38:34;8.10;;;7.30;;
5297;SDS011;14738;42.668;23.250;2022-12-18T03:46:32;7.63;;;6.93;;
5297;SDS011;14738;42.668;23.250;2022-12-18T03:49:11;6.90;;;6.30;;
5297;SDS011;14738;42.668;23.250;2022-12-18T03:51:49;6.70;;;6.10;;
5297;SDS011;14738;42.668;23.250;2022-12-18T03:54:18;8.40;;;7.17;;
5297;SDS011;14738;42.668;23.250;2022-12-18T03:56:49;7.60;;;7.00;;
5297;SDS011;14738;42.668;23.250;2022-12-18T03:59:22;7.37;;;6.77;;
5297;SDS011;14738;42.668;23.250;2022-12-18T04:01:50;8.30;;;7.50;;
5297;SDS011;14738;42.668;23.250;2022-12-18T04:04:18;7.50;;;6.80;;
5297;SDS011;14738;42.668;23.250;2022-12-18T04:06:44;7.73;;;7.03;;
5297;SDS011;14738;42.668;23.250;2022-12-18T04:09:12;6.93;;;6.23;;
5297;SDS011;14738;42.668;23.250;2022-12-18T04:11:39;7.80;;;7.07;;
5297;SDS011;14738;42.668;23.250;2022-12-18T04:14:07;7.43;;;6.73;;
5297;SDS011;14738;42.668;23.250;2022-12-18T04:16:32;7.57;;;6.87;;
5297;SDS011;14738;42.668;23.250;2022-12-18T04:18:57;11.23;;;7.47;;
5297;SDS011;14738;42.668;23.250;2022-12-18T04:21:23;7.67;;;7.00;;
5297;SDS011;14738;42.668;23.250;2022-12-18T04:23:48;7.90;;;7.20;;
5297;SDS011;14738;42.668;23.250;2022-12-18T04:26:14;11.60;;;9.27;;
5297;SDS011;14738;42.668;23.250;2022-12-18T04:28:39;9.70;;;8.80;;
5297;SDS011;14738;42.668;23.250;2022-12-18T04:31:05;10.90;;;9.60;;
5297;SDS011;14738;42.668;23.250;2022-12-18T04:33:30;10.70;;;9.23;;
5297;SDS011;14738;42.668;23.250;2022-12-18T04:35:56;8.27;;;7.47;;
5297;SDS011;14738;42.668;23.250;2022-12-18T04:38:21;9.07;;;8.03;;
5297;SDS011;14738;42.668;23.250;2022-12-18T04:40:47;8.60;;;7.87;;
5297;SDS011;14738;42.668;23.250;2022-12-18T04:43:12;9.50;;;8.37;;
5297;SDS011;14738;42.668;23.250;2022-12-18T04:45:37;8.63;;;7.73;;
5297;SDS011;14738;42.668;23.250;2022-12-18T04:48:03;9.20;;;7.70;;
5297;SDS011;14738;42.668;23.250;2022-12-18T04:50:29;8.17;;;7.40;;
5297;SDS011;14738;42.668;23.250;2022-12-18T04:52:55;10.17;;;8.87;;
5297;SDS011;14738;42.668;23.250;2022-12-18T04:55:24;10.33;;;9.23;;
5297;SDS011;14738;42.668;23.250;2022-12-18T04:57:49;9.80;;;8.80;;
5297;SDS011;14738;42.668;23.250;2022-12-18T05:00:15;9.97;;;8.97;;
5297;SDS011;14738;42.668;23.250;2022-12-18T05:02:41;10.33;;;9.33;;
5297;SDS011;14738;42.668;23.250;2022-12-18T05:05:06;9.60;;;8.70;;
5297;SDS011;14738;42.668;23.250;2022-12-18T05:07:32;9.00;;;8.10;;
5297;SDS011;14738;42.668;23.250;2022-12-18T05:09:58;8.23;;;7.50;;
5297;SDS011;14738;42.668;23.250;2022-12-18T05:12:23;9.00;;;8.20;;
5297;SDS011;14738;42.668;23.250;2022-12-18T05:14:49;8.60;;;7.70;;
5297;SDS011;14738;42.668;23.250;2022-12-18T05:17:14;9.33;;;8.37;;
5297;SDS011;14738;42.668;23.250;2022-12-18T05:19:40;8.50;;;7.70;;
5297;SDS011;14738;42.668;23.250;2022-12-18T05:22:08;11.47;;;7.20;;
5297;SDS011;14738;42.668;23.250;2022-12-18T05:24:34;8.47;;;7.60;;
5297;SDS011;14738;42.668;23.250;2022-12-18T05:27:00;8.50;;;7.60;;
5297;SDS011;14738;42.668;23.250;2022-12-18T05:29:25;8.70;;;7.80;;
5297;SDS011;14738;42.668;23.250;2022-12-18T05:31:51;9.33;;;7.90;;
5297;SDS011;14738;42.668;23.250;2022-12-18T05:34:16;10.03;;;9.03;;
5297;SDS011;14738;42.668;23.250;2022-12-18T05:36:42;9.40;;;8.40;;
5297;SDS011;14738;42.668;23.250;2022-12-18T05:39:07;9.53;;;8.63;;
5297;SDS011;14738;42.668;23.250;2022-12-18T05:41:33;9.70;;;8.70;;
5297;SDS011;14738;42.668;23.250;2022-12-18T05:43:58;9.33;;;8.43;;
5297;SDS011;14738;42.668;23.250;2022-12-18T05:46:24;10.13;;;8.50;;
5297;SDS011;14738;42.668;23.250;2022-12-18T05:48:49;11.40;;;9.60;;
5297;SDS011;14738;42.668;23.250;2022-12-18T05:51:16;9.20;;;8.30;;
5297;SDS011;14738;42.668;23.250;2022-12-18T05:53:45;10.90;;;9.77;;
5297;SDS011;14738;42.668;23.250;2022-12-18T05:56:12;10.70;;;9.60;;
5297;SDS011;14738;42.668;23.250;2022-12-18T05:58:41;10.83;;;9.70;;
5297;SDS011;14738;42.668;23.250;2022-12-18T06:01:08;13.30;;;9.40;;
5297;SDS011;14738;42.668;23.250;2022-12-18T06:03:45;11.10;;;9.77;;
5297;SDS011;14738;42.668;23.250;2022-12-18T06:08:40;11.03;;;9.87;;
5297;SDS011;14738;42.668;23.250;2022-12-18T06:11:05;13.00;;;11.43;;
5297;SDS011;14738;42.668;23.250;2022-12-18T06:13:31;11.60;;;10.27;;
5297;SDS011;14738;42.668;23.250;2022-12-18T06:15:56;12.10;;;10.00;;
5297;SDS011;14738;42.668;23.250;2022-12-18T06:18:22;12.43;;;10.17;;
5297;SDS011;14738;42.668;23.250;2022-12-18T06:20:54;11.60;;;10.00;;
5297;SDS011;14738;42.668;23.250;2022-12-18T06:23:23;12.37;;;10.70;;
5297;SDS011;14738;42.668;23.250;2022-12-18T06:25:48;12.33;;;10.97;;
5297;SDS011;14738;42.668;23.250;2022-12-18T06:28:14;11.70;;;10.50;;
5297;SDS011;14738;42.668;23.250;2022-12-18T06:30:39;12.90;;;10.93;;
5297;SDS011;14738;42.668;23.250;2022-12-18T06:33:05;14.17;;;12.10;;
5297;SDS011;14738;42.668;23.250;2022-12-18T06:35:31;12.90;;;11.43;;
5297;SDS011;14738;42.668;23.250;2022-12-18T06:37:57;11.20;;;10.00;;
5297;SDS011;14738;42.668;23.250;2022-12-18T06:40:22;14.73;;;11.73;;
5297;SDS011;14738;42.668;23.250;2022-12-18T06:42:48;13.23;;;11.80;;
5297;SDS011;14738;42.668;23.250;2022-12-18T06:45:16;12.77;;;11.27;;
5297;SDS011;14738;42.668;23.250;2022-12-18T06:47:42;12.03;;;10.80;;
5297;SDS011;14738;42.668;23.250;2022-12-18T06:50:07;12.60;;;10.77;;
5297;SDS011;14738;42.668;23.250;2022-12-18T06:52:33;11.97;;;10.77;;
5297;SDS011;14738;42.668;23.250;2022-12-18T06:54:59;13.00;;;11.60;;
5297;SDS011;14738;42.668;23.250;2022-12-18T06:57:25;15.07;;;12.23;;
5297;SDS011;14738;42.668;23.250;2022-12-18T06:59:50;14.53;;;12.20;;
5297;SDS011;14738;42.668;23.250;2022-12-18T07:02:15;13.70;;;11.57;;
5297;SDS011;14738;42.668;23.250;2022-12-18T07:04:41;13.80;;;12.30;;
5297;SDS011;14738;42.668;23.250;2022-12-18T07:07:06;11.43;;;9.80;;
5297;SDS011;14738;42.668;23.250;2022-12-18T07:09:32;13.37;;;11.10;;
5297;SDS011;14738;42.668;23.250;2022-12-18T07:11:57;15.60;;;11.63;;
5297;SDS011;14738;42.668;23.250;2022-12-18T07:14:23;13.53;;;11.70;;
5297;SDS011;14738;42.668;23.250;2022-12-18T07:16:48;12.70;;;11.13;;
5297;SDS011;14738;42.668;23.250;2022-12-18T07:19:14;15.80;;;10.80;;
5297;SDS011;14738;42.668;23.250;2022-12-18T07:21:39;14.97;;;11.50;;
5297;SDS011;14738;42.668;23.250;2022-12-18T07:24:05;13.40;;;12.00;;
5297;SDS011;14738;42.668;23.250;2022-12-18T07:26:31;13.40;;;10.90;;
5297;SDS011;14738;42.668;23.250;2022-12-18T07:28:56;13.20;;;10.37;;
5297;SDS011;14738;42.668;23.250;2022-12-18T07:31:23;14.50;;;11.90;;
5297;SDS011;14738;42.668;23.250;2022-12-18T07:33:49;17.03;;;12.77;;
5297;SDS011;14738;42.668;23.250;2022-12-18T07:36:16;14.27;;;12.33;;
5297;SDS011;14738;42.668;23.250;2022-12-18T07:38:41;13.77;;;11.27;;
5297;SDS011;14738;42.668;23.250;2022-12-18T07:41:09;13.50;;;11.60;;
5297;SDS011;14738;42.668;23.250;2022-12-18T07:43:36;14.67;;;12.00;;
5297;SDS011;14738;42.668;23.250;2022-12-18T07:46:02;13.83;;;12.33;;
5297;SDS011;14738;42.668;23.250;2022-12-18T07:48:30;12.87;;;11.20;;
5297;SDS011;14738;42.668;23.250;2022-12-18T07:50:59;21.70;;;15.47;;
5297;SDS011;14738;42.668;23.250;2022-12-18T07:53:29;18.83;;;14.10;;
5297;SDS011;14738;42.668;23.250;2022-12-18T07:55:55;15.93;;;14.20;;
5297;SDS011;14738;42.668;23.250;2022-12-18T07:58:22;21.10;;;15.93;;
5297;SDS011;14738;42.668;23.250;2022-12-18T08:00:47;20.67;;;14.77;;
5297;SDS011;14738;42.668;23.250;2022-12-18T08:03:14;18.10;;;15.00;;
5297;SDS011;14738;42.668;23.250;2022-12-18T08:05:39;18.33;;;15.03;;
5297;SDS011;14738;42.668;23.250;2022-12-18T08:08:06;19.13;;;15.33;;
5297;SDS011;14738;42.668;23.250;2022-12-18T08:10:32;18.97;;;14.90;;
5297;SDS011;14738;42.668;23.250;2022-12-18T08:12:57;16.20;;;13.63;;
5297;SDS011;14738;42.668;23.250;2022-12-18T08:15:23;21.37;;;15.77;;
5297;SDS011;14738;42.668;23.250;2022-12-18T08:17:48;21.50;;;15.93;;
5297;SDS011;14738;42.668;23.250;2022-12-18T08:20:14;19.30;;;16.17;;
5297;SDS011;14738;42.668;23.250;2022-12-18T08:22:40;20.33;;;15.50;;
5297;SDS011;14738;42.668;23.250;2022-12-18T08:25:07;24.53;;;17.77;;
5297;SDS011;14738;42.668;23.250;2022-12-18T08:27:33;23.53;;;17.50;;
5297;SDS011;14738;42.668;23.250;2022-12-18T08:29:59;22.70;;;16.50;;
5297;SDS011;14738;42.668;23.250;2022-12-18T08:32:24;21.47;;;16.43;;
5297;SDS011;14738;42.668;23.250;2022-12-18T08:34:51;18.23;;;15.37;;
5297;SDS011;14738;42.668;23.250;2022-12-18T08:37:16;19.97;;;16.37;;
5297;SDS011;14738;42.668;23.250;2022-12-18T08:39:42;19.97;;;15.77;;
5297;SDS011;14738;42.668;23.250;2022-12-18T08:42:07;19.53;;;15.53;;
5297;SDS011;14738;42.668;23.250;2022-12-18T08:44:52;24.70;;;17.80;;
5297;SDS011;14738;42.668;23.250;2022-12-18T08:47:17;27.13;;;18.77;;
5297;SDS011;14738;42.668;23.250;2022-12-18T08:49:43;21.10;;;17.17;;
5297;SDS011;14738;42.668;23.250;2022-12-18T08:52:08;23.90;;;18.47;;
5297;SDS011;14738;42.668;23.250;2022-12-18T08:54:34;22.60;;;16.00;;
5297;SDS011;14738;42.668;23.250;2022-12-18T08:56:59;24.20;;;18.33;;
5297;SDS011;14738;42.668;23.250;2022-12-18T08:59:28;29.27;;;21.50;;
5297;SDS011;14738;42.668;23.250;2022-12-18T09:01:54;22.97;;;16.33;;
5297;SDS011;14738;42.668;23.250;2022-12-18T09:04:20;21.30;;;16.37;;
5297;SDS011;14738;42.668;23.250;2022-12-18T09:06:45;23.97;;;16.60;;
5297;SDS011;14738;42.668;23.250;2022-12-18T09:09:11;22.20;;;17.67;;
5297;SDS011;14738;42.668;23.250;2022-12-18T09:11:37;20.83;;;16.70;;
5297;SDS011;14738;42.668;23.250;2022-12-18T09:14:02;22.73;;;16.10;;
5297;SDS011;14738;42.668;23.250;2022-12-18T09:16:28;20.37;;;16.20;;
5297;SDS011;14738;42.668;23.250;2022-12-18T09:18:55;22.93;;;17.13;;
5297;SDS011;14738;42.668;23.250;2022-12-18T09:21:24;20.47;;;16.77;;
5297;SDS011;14738;42.668;23.250;2022-12-18T09:23:52;23.23;;;17.83;;
5297;SDS011;14738;42.668;23.250;2022-12-18T09:26:20;21.37;;;14.80;;
5297;SDS011;14738;42.668;23.250;2022-12-18T09:28:46;17.03;;;14.90;;
5297;SDS011;14738;42.668;23.250;2022-12-18T09:31:15;19.63;;;15.33;;
5297;SDS011;14738;42.668;23.250;2022-12-18T09:33:42;19.97;;;14.97;;
5297;SDS011;14738;42.668;23.250;2022-12-18T09:36:10;18.80;;;14.70;;
5297;SDS011;14738;42.668;23.250;2022-12-18T09:38:37;24.37;;;16.50;;
5297;SDS011;14738;42.668;23.250;2022-12-18T09:41:30;24.47;;;16.50;;
5297;SDS011;14738;42.668;23.250;2022-12-18T09:43:52;20.77;;;16.40;;
5297;SDS011;14738;42.668;23.250;2022-12-18T09:49:17;19.37;;;15.50;;
5297;SDS011;14738;42.668;23.250;2022-12-18T09:57:49;21.60;;;16.87;;
5297;SDS011;14738;42.668;23.250;2022-12-18T10:00:21;22.73;;;16.30;;
5297;SDS011;14738;42.668;23.250;2022-12-18T10:02:48;19.03;;;14.30;;
5297;SDS011;14738;42.668;23.250;2022-12-18T10:05:17;17.90;;;13.60;;
5297;SDS011;14738;42.668;23.250;2022-12-18T10:10:52;15.07;;;13.10;;
5297;SDS011;14738;42.668;23.250;2022-12-18T10:13:22;17.70;;;13.63;;
5297;SDS011;14738;42.668;23.250;2022-12-18T10:18:39;19.93;;;14.40;;
5297;SDS011;14738;42.668;23.250;2022-12-18T10:21:11;18.93;;;14.73;;
5297;SDS011;14738;42.668;23.250;2022-12-18T10:26:12;20.97;;;14.40;;
5297;SDS011;14738;42.668;23.250;2022-12-18T10:28:39;19.73;;;13.80;;
5297;SDS011;14738;42.668;23.250;2022-12-18T10:31:06;18.43;;;15.00;;
5297;SDS011;14738;42.668;23.250;2022-12-18T10:33:33;18.90;;;14.53;;
5297;SDS011;14738;42.668;23.250;2022-12-18T10:35:59;21.27;;;14.77;;
5297;SDS011;14738;42.668;23.250;2022-12-18T10:38:29;18.90;;;13.40;;
5297;SDS011;14738;42.668;23.250;2022-12-18T10:40:58;19.43;;;14.10;;
5297;SDS011;14738;42.668;23.250;2022-12-18T10:43:29;19.17;;;13.63;;
5297;SDS011;14738;42.668;23.250;2022-12-18T10:46:05;16.77;;;12.87;;
5297;SDS011;14738;42.668;23.250;2022-12-18T10:48:34;17.30;;;13.30;;
5297;SDS011;14738;42.668;23.250;2022-12-18T10:51:05;14.57;;;11.70;;
5297;SDS011;14738;42.668;23.250;2022-12-18T10:53:32;14.20;;;11.80;;
5297;SDS011;14738;42.668;23.250;2022-12-18T10:56:02;17.33;;;13.70;;
5297;SDS011;14738;42.668;23.250;2022-12-18T10:58:31;19.03;;;12.40;;
5297;SDS011;14738;42.668;23.250;2022-12-18T11:01:14;15.63;;;12.53;;
5297;SDS011;14738;42.668;23.250;2022-12-18T11:03:42;17.00;;;13.53;;
5297;SDS011;14738;42.668;23.250;2022-12-18T11:06:15;14.30;;;12.67;;
5297;SDS011;14738;42.668;23.250;2022-12-18T11:08:43;15.40;;;13.10;;
5297;SDS011;14738;42.668;23.250;2022-12-18T11:11:16;16.43;;;13.20;;
5297;SDS011;14738;42.668;23.250;2022-12-18T11:16:24;17.57;;;13.93;;
5297;SDS011;14738;42.668;23.250;2022-12-18T11:18:50;16.73;;;13.07;;
5297;SDS011;14738;42.668;23.250;2022-12-18T11:21:16;17.43;;;13.40;;
5297;SDS011;14738;42.668;23.250;2022-12-18T11:23:49;15.47;;;12.07;;
5297;SDS011;14738;42.668;23.250;2022-12-18T11:26:16;15.20;;;11.17;;
5297;SDS011;14738;42.668;23.250;2022-12-18T11:28:49;14.30;;;11.27;;
5297;SDS011;14738;42.668;23.250;2022-12-18T11:31:27;19.07;;;13.10;;
5297;SDS011;14738;42.668;23.250;2022-12-18T11:36:29;18.33;;;13.53;;
5297;SDS011;14738;42.668;23.250;2022-12-18T11:39:12;16.27;;;11.83;;
5297;SDS011;14738;42.668;23.250;2022-12-18T11:41:53;17.60;;;13.90;;
5297;SDS011;14738;42.668;23.250;2022-12-18T11:44:54;26.37;;;20.93;;
5297;SDS011;14738;42.668;23.250;2022-12-18T11:47:26;19.10;;;14.83;;
5297;SDS011;14738;42.668;23.250;2022-12-18T11:50:00;15.13;;;12.97;;
5297;SDS011;14738;42.668;23.250;2022-12-18T11:52:36;26.30;;;20.43;;
5297;SDS011;14738;42.668;23.250;2022-12-18T12:17:34;19.43;;;13.30;;
5297;SDS011;14738;42.668;23.250;2022-12-18T12:20:17;19.73;;;14.70;;
5297;SDS011;14738;42.668;23.250;2022-12-18T12:23:02;19.33;;;16.27;;
5297;SDS011;14738;42.668;23.250;2022-12-18T12:31:41;18.27;;;14.63;;
5297;SDS011;14738;42.668;23.250;2022-12-18T12:39:55;19.40;;;13.80;;
5297;SDS011;14738;42.668;23.250;2022-12-18T12:42:30;17.00;;;15.07;;
5297;SDS011;14738;42.668;23.250;2022-12-18T12:45:16;22.37;;;16.00;;
5297;SDS011;14738;42.668;23.250;2022-12-18T12:47:47;20.03;;;14.90;;
5297;SDS011;14738;42.668;23.250;2022-12-18T12:50:16;19.13;;;15.10;;
5297;SDS011;14738;42.668;23.250;2022-12-18T12:52:45;19.00;;;13.63;;
5297;SDS011;14738;42.668;23.250;2022-12-18T12:55:23;18.77;;;14.97;;
5297;SDS011;14738;42.668;23.250;2022-12-18T13:00:41;15.63;;;13.20;;
5297;SDS011;14738;42.668;23.250;2022-12-18T13:06:05;16.37;;;13.10;;
5297;SDS011;14738;42.668;23.250;2022-12-18T13:08:57;19.87;;;15.13;;
5297;SDS011;14738;42.668;23.250;2022-12-18T13:11:35;18.30;;;14.27;;
5297;SDS011;14738;42.668;23.250;2022-12-18T13:20:07;16.17;;;13.97;;
5297;SDS011;14738;42.668;23.250;2022-12-18T13:22:37;18.53;;;14.13;;
5297;SDS011;14738;42.668;23.250;2022-12-18T13:28:12;17.93;;;14.13;;
5297;SDS011;14738;42.668;23.250;2022-12-18T13:40:57;19.80;;;15.03;;
5297;SDS011;14738;42.668;23.250;2022-12-18T13:43:30;17.13;;;14.17;;
5297;SDS011;14738;42.668;23.250;2022-12-18T13:46:00;20.13;;;15.60;;
5297;SDS011;14738;42.668;23.250;2022-12-18T13:48:31;17.97;;;14.53;;
5297;SDS011;14738;42.668;23.250;2022-12-18T13:53:39;14.80;;;12.50;;
5297;SDS011;14738;42.668;23.250;2022-12-18T13:56:10;20.83;;;14.40;;
5297;SDS011;14738;42.668;23.250;2022-12-18T13:58:41;19.03;;;15.57;;
5297;SDS011;14738;42.668;23.250;2022-12-18T14:01:15;17.33;;;13.77;;
5297;SDS011;14738;42.668;23.250;2022-12-18T14:03:47;16.60;;;12.73;;
5297;SDS011;14738;42.668;23.250;2022-12-18T14:06:12;16.27;;;13.13;;
5297;SDS011;14738;42.668;23.250;2022-12-18T14:08:39;16.33;;;12.77;;
5297;SDS011;14738;42.668;23.250;2022-12-18T14:11:06;15.67;;;12.73;;
5297;SDS011;14738;42.668;23.250;2022-12-18T14:13:36;15.80;;;12.10;;
5297;SDS011;14738;42.668;23.250;2022-12-18T14:16:11;14.07;;;11.83;;
5297;SDS011;14738;42.668;23.250;2022-12-18T14:18:47;16.07;;;13.53;;
5297;SDS011;14738;42.668;23.250;2022-12-18T14:21:30;17.13;;;12.80;;
5297;SDS011;14738;42.668;23.250;2022-12-18T14:26:29;13.53;;;10.87;;
5297;SDS011;14738;42.668;23.250;2022-12-18T14:28:58;16.70;;;13.57;;
5297;SDS011;14738;42.668;23.250;2022-12-18T14:31:27;17.13;;;13.30;;
5297;SDS011;14738;42.668;23.250;2022-12-18T14:33:55;19.03;;;12.87;;
5297;SDS011;14738;42.668;23.250;2022-12-18T14:36:23;17.17;;;13.33;;
5297;SDS011;14738;42.668;23.250;2022-12-18T14:38:56;19.87;;;14.27;;
5297;SDS011;14738;42.668;23.250;2022-12-18T14:41:23;18.30;;;13.57;;
5297;SDS011;14738;42.668;23.250;2022-12-18T14:43:50;15.63;;;13.20;;
5297;SDS011;14738;42.668;23.250;2022-12-18T14:48:58;18.60;;;14.20;;
5297;SDS011;14738;42.668;23.250;2022-12-18T14:51:28;16.50;;;12.03;;
5297;SDS011;14738;42.668;23.250;2022-12-18T14:53:58;17.57;;;13.00;;
5297;SDS011;14738;42.668;23.250;2022-12-18T14:56:33;18.93;;;13.10;;
5297;SDS011;14738;42.668;23.250;2022-12-18T14:59:01;22.10;;;15.00;;
5297;SDS011;14738;42.668;23.250;2022-12-18T15:04:02;19.73;;;15.10;;
5297;SDS011;14738;42.668;23.250;2022-12-18T15:06:30;18.00;;;14.90;;
5297;SDS011;14738;42.668;23.250;2022-12-18T15:09:01;20.23;;;15.17;;
5297;SDS011;14738;42.668;23.250;2022-12-18T15:11:34;18.40;;;13.87;;
5297;SDS011;14738;42.668;23.250;2022-12-18T15:17:05;20.03;;;14.47;;
5297;SDS011;14738;42.668;23.250;2022-12-18T15:19:41;22.70;;;16.07;;
5297;SDS011;14738;42.668;23.250;2022-12-18T15:22:17;20.50;;;14.27;;
5297;SDS011;14738;42.668;23.250;2022-12-18T15:24:54;16.57;;;13.43;;
5297;SDS011;14738;42.668;23.250;2022-12-18T15:29:59;21.20;;;15.23;;
5297;SDS011;14738;42.668;23.250;2022-12-18T15:32:26;19.20;;;14.97;;
5297;SDS011;14738;42.668;23.250;2022-12-18T15:35:01;19.80;;;14.40;;
5297;SDS011;14738;42.668;23.250;2022-12-18T15:37:36;21.80;;;14.33;;
5297;SDS011;14738;42.668;23.250;2022-12-18T15:40:05;21.07;;;14.10;;
5297;SDS011;14738;42.668;23.250;2022-12-18T15:42:43;17.43;;;13.70;;
5297;SDS011;14738;42.668;23.250;2022-12-18T15:45:28;21.20;;;14.63;;
5297;SDS011;14738;42.668;23.250;2022-12-18T15:47:57;21.40;;;15.70;;
5297;SDS011;14738;42.668;23.250;2022-12-18T15:50:23;19.13;;;14.50;;
5297;SDS011;14738;42.668;23.250;2022-12-18T15:52:49;21.80;;;16.60;;
5297;SDS011;14738;42.668;23.250;2022-12-18T15:55:17;20.57;;;14.63;;
5297;SDS011;14738;42.668;23.250;2022-12-18T15:58:06;22.07;;;16.23;;
5297;SDS011;14738;42.668;23.250;2022-12-18T16:00:33;16.67;;;12.93;;
5297;SDS011;14738;42.668;23.250;2022-12-18T16:03:00;19.97;;;14.07;;
5297;SDS011;14738;42.668;23.250;2022-12-18T16:05:26;30.90;;;21.67;;
5297;SDS011;14738;42.668;23.250;2022-12-18T16:07:52;23.73;;;17.47;;
5297;SDS011;14738;42.668;23.250;2022-12-18T16:10:18;23.90;;;17.17;;
5297;SDS011;14738;42.668;23.250;2022-12-18T16:12:44;22.13;;;14.70;;
5297;SDS011;14738;42.668;23.250;2022-12-18T16:15:11;18.13;;;13.33;;
5297;SDS011;14738;42.668;23.250;2022-12-18T16:17:39;16.60;;;12.27;;
5297;SDS011;14738;42.668;23.250;2022-12-18T16:20:06;19.33;;;13.17;;
5297;SDS011;14738;42.668;23.250;2022-12-18T16:22:37;16.43;;;12.40;;
5297;SDS011;14738;42.668;23.250;2022-12-18T16:25:03;16.37;;;12.10;;
5297;SDS011;14738;42.668;23.250;2022-12-18T16:27:30;16.53;;;12.00;;
5297;SDS011;14738;42.668;23.250;2022-12-18T16:29:55;19.10;;;13.27;;
5297;SDS011;14738;42.668;23.250;2022-12-18T16:32:21;16.13;;;12.70;;
5297;SDS011;14738;42.668;23.250;2022-12-18T16:34:47;19.70;;;14.30;;
5297;SDS011;14738;42.668;23.250;2022-12-18T16:37:13;20.73;;;15.07;;
5297;SDS011;14738;42.668;23.250;2022-12-18T16:39:40;27.87;;;17.40;;
5297;SDS011;14738;42.668;23.250;2022-12-18T16:42:09;22.40;;;16.83;;
5297;SDS011;14738;42.668;23.250;2022-12-18T16:44:42;19.07;;;14.70;;
5297;SDS011;14738;42.668;23.250;2022-12-18T16:47:09;26.37;;;17.77;;
5297;SDS011;14738;42.668;23.250;2022-12-18T16:49:34;18.87;;;13.50;;
5297;SDS011;14738;42.668;23.250;2022-12-18T16:52:03;16.80;;;12.13;;
5297;SDS011;14738;42.668;23.250;2022-12-18T16:54:29;18.00;;;12.90;;